Time;durP1;ratioP1;P1;durP2;ratioP2;P2;SDS_P1;SDS_P2;PMS_P1;PMS_P2;Temp;Humidity;BMP_temperature;BMP_pressure;BME280_temperature;BME280_humidity;BME280_pressure;Samples;Min_cycle;Max_cycle;Signal;HPM_P1;HPM_P2
2021/07/11 00:03:13;;;;;;;17.25;12.82;;;;;;;17.67;78.42;101450.78;10545327;28;20040;-60
2021/07/11 00:08:16;;;;;;;14.38;11.43;;;;;;;17.25;80.97;101441.56;10544602;28;20048;-59
2021/07/11 00:13:18;;;;;;;14.95;11.55;;;;;;;17.44;79.88;101445.47;10543644;28;20492;-60
2021/07/11 00:18:20;;;;;;;15.90;12.45;;;;;;;17.50;79.45;101454.72;10544860;28;20089;-60
2021/07/11 00:23:23;;;;;;;17.80;14.93;;;;;;;17.54;79.45;101441.13;10544077;28;20051;-60
2021/07/11 00:28:25;;;;;;;18.08;15.02;;;;;;;17.58;79.74;101433.81;10544583;28;20048;-60
2021/07/11 00:33:29;;;;;;;17.13;14.98;;;;;;;17.69;79.83;101433.00;10543209;28;20040;-60
2021/07/11 00:38:32;;;;;;;24.15;16.40;;;;;;;17.49;79.87;101422.13;10543518;28;20051;-60
2021/07/11 00:43:34;;;;;;;18.55;15.68;;;;;;;17.52;79.96;101413.94;10543328;28;20427;-59
2021/07/11 00:48:36;;;;;;;23.80;17.60;;;;;;;17.47;80.35;101413.47;10543160;28;20055;-59
2021/07/11 00:53:49;;;;;;;22.95;18.35;;;;;;;17.55;79.73;101418.16;10543367;28;20484;-60
2021/07/11 00:58:52;;;;;;;20.42;15.98;;;;;;;17.50;78.69;101425.59;10542963;28;20060;-59
2021/07/11 01:04:01;;;;;;;21.55;16.23;;;;;;;17.40;81.26;101436.03;10543417;28;20051;-60
2021/07/11 01:09:06;;;;;;;18.95;15.50;;;;;;;17.30;81.12;101443.88;10542277;28;20082;-60
2021/07/11 01:14:09;;;;;;;22.45;17.50;;;;;;;17.34;81.07;101455.91;10541756;28;20044;-60
2021/07/11 01:19:34;;;;;;;21.98;18.77;;;;;;;17.48;80.23;101443.41;10542175;28;20052;-59
2021/07/11 01:24:57;;;;;;;25.88;19.45;;;;;;;17.14;82.23;101448.63;10540910;28;20056;-60
2021/07/11 01:29:59;;;;;;;26.48;21.42;;;;;;;17.09;82.14;101446.31;10541853;28;20506;-60
2021/07/11 01:35:04;;;;;;;24.95;21.88;;;;;;;17.27;81.35;101444.09;10541190;28;20048;-60
2021/07/11 01:40:08;;;;;;;23.98;20.55;;;;;;;17.26;81.65;101448.56;10541772;28;20059;-60
2021/07/11 01:45:11;;;;;;;25.70;21.33;;;;;;;17.50;81.53;101450.28;10540640;28;20093;-61
2021/07/11 01:50:13;;;;;;;24.58;20.08;;;;;;;17.58;80.78;101450.53;10541023;28;20087;-60
2021/07/11 01:55:17;;;;;;;27.77;21.48;;;;;;;17.41;81.16;101449.16;10539395;28;20044;-61
2021/07/11 02:00:20;;;;;;;24.17;19.85;;;;;;;17.27;82.32;101446.75;10540653;28;20109;-60
2021/07/11 02:05:22;;;;;;;22.55;20.13;;;;;;;17.40;81.02;101446.63;10540477;28;20044;-60
2021/07/11 02:10:25;;;;;;;24.30;20.70;;;;;;;17.35;81.58;101443.50;10539887;28;20052;-61
2021/07/11 02:15:29;;;;;;;25.85;18.95;;;;;;;17.11;82.48;101447.03;10539882;28;20055;-61
2021/07/11 02:20:32;;;;;;;24.33;20.00;;;;;;;17.17;81.99;101438.66;10539253;28;20062;-59
2021/07/11 02:25:34;;;;;;;24.45;18.40;;;;;;;17.31;82.01;101444.69;10538612;28;20091;-59
2021/07/11 02:30:41;;;;;;;22.13;17.40;;;;;;;17.44;80.96;101441.00;10539416;28;20052;-59
2021/07/11 02:35:46;;;;;;;22.80;19.15;;;;;;;17.23;81.23;101439.97;10538679;28;20052;-60
2021/07/11 02:40:51;;;;;;;21.40;17.80;;;;;;;17.25;81.94;101452.16;10538160;28;20044;-60
2021/07/11 02:45:53;;;;;;;27.50;20.67;;;;;;;17.25;81.98;101448.66;10539328;28;20047;-60
2021/07/11 02:50:56;;;;;;;22.85;19.92;;;;;;;17.09;82.50;101455.06;10537913;28;20127;-60
2021/07/11 02:55:58;;;;;;;18.67;16.50;;;;;;;17.29;81.63;101473.91;10542212;28;20056;-60
2021/07/11 03:01:01;;;;;;;28.70;19.63;;;;;;;17.12;82.60;101472.53;10546572;28;20058;-60
2021/07/11 03:06:04;;;;;;;26.30;19.80;;;;;;;17.21;82.12;101473.66;10529413;28;20059;-60
2021/07/11 03:11:06;;;;;;;27.55;20.58;;;;;;;17.13;82.37;101476.88;10547146;28;20415;-60
2021/07/11 03:16:09;;;;;;;26.73;23.17;;;;;;;17.33;81.83;101466.59;10545594;28;20380;-60
2021/07/11 03:21:12;;;;;;;32.67;23.83;;;;;;;17.07;82.90;101467.59;10546718;28;20480;-60
2021/07/11 03:26:14;;;;;;;30.33;23.98;;;;;;;17.09;83.64;101467.47;10545643;28;20058;-61
2021/07/11 03:31:18;;;;;;;31.33;23.00;;;;;;;17.01;83.64;101465.41;10546501;28;20050;-60
2021/07/11 03:36:21;;;;;;;30.25;23.58;;;;;;;17.07;83.97;101464.94;10545073;28;20044;-61
2021/07/11 03:41:31;;;;;;;34.97;25.98;;;;;;;17.04;83.87;101470.44;10544706;28;20050;-60
2021/07/11 03:46:36;;;;;;;34.03;26.73;;;;;;;17.02;83.83;101484.75;10545476;28;20136;-60
2021/07/11 03:51:39;;;;;;;30.50;24.30;;;;;;;17.03;83.78;101482.00;10545686;28;20051;-60
2021/07/11 03:56:45;;;;;;;39.70;29.23;;;;;;;16.81;83.92;101485.34;10544778;28;20071;-60
2021/07/11 04:01:48;;;;;;;46.30;34.45;;;;;;;16.87;83.87;101481.44;10543744;28;20484;-59
2021/07/11 04:06:52;;;;;;;38.13;30.35;;;;;;;17.11;83.58;101486.72;10543803;28;20044;-60
2021/07/11 04:11:55;;;;;;;32.83;28.05;;;;;;;17.15;82.71;101482.91;10545086;28;20055;-59
2021/07/11 04:17:05;;;;;;;38.75;29.92;;;;;;;16.92;83.96;101491.69;10544315;28;20051;-59
2021/07/11 04:22:10;;;;;;;38.95;29.90;;;;;;;17.09;83.55;101491.28;10544856;28;20047;-60
2021/07/11 04:27:12;;;;;;;33.78;26.60;;;;;;;17.36;81.85;101492.84;10544259;28;20085;-59
2021/07/11 04:32:15;;;;;;;40.72;29.30;;;;;;;17.31;82.50;101493.16;10544579;28;20047;-59
2021/07/11 04:37:17;;;;;;;35.45;27.92;;;;;;;17.11;83.35;101494.66;10543725;28;20052;-59
2021/07/11 04:42:19;;;;;;;37.22;28.90;;;;;;;17.11;83.89;101492.00;10543186;28;20084;-59
2021/07/11 04:47:22;;;;;;;33.10;28.20;;;;;;;16.99;84.46;101491.13;10543270;28;20059;-60
2021/07/11 04:52:24;;;;;;;33.88;28.45;;;;;;;17.19;83.72;101492.28;10542987;28;20044;-60
2021/07/11 04:57:27;;;;;;;38.97;30.05;;;;;;;16.98;84.08;101494.72;10542906;28;20055;-60
2021/07/11 05:02:29;;;;;;;33.80;25.40;;;;;;;17.03;84.31;101502.31;10542789;28;20071;-59
2021/07/11 05:07:31;;;;;;;35.88;27.45;;;;;;;16.88;84.82;101497.19;10541069;28;20430;-60
2021/07/11 05:12:34;;;;;;;36.10;29.85;;;;;;;16.97;84.12;101505.41;10542319;28;20048;-60
2021/07/11 05:17:37;;;;;;;37.13;28.90;;;;;;;17.01;84.06;101506.88;10541494;28;20055;-59
2021/07/11 05:22:39;;;;;;;35.33;29.52;;;;;;;16.93;84.48;101496.88;10542009;28;20051;-59
2021/07/11 05:27:41;;;;;;;43.50;33.38;;;;;;;16.91;84.52;101493.47;10540331;28;20059;-60
2021/07/11 05:32:44;;;;;;;41.40;31.63;;;;;;;17.07;83.74;101488.75;10541797;28;20055;-60
2021/07/11 05:37:46;;;;;;;36.22;29.42;;;;;;;17.06;83.97;101484.44;10541971;28;20052;-60
2021/07/11 05:42:49;;;;;;;38.25;30.38;;;;;;;17.24;83.24;101474.25;10540975;28;20047;-60
2021/07/11 05:47:51;;;;;;;37.30;29.40;;;;;;;17.19;83.44;101480.88;10540807;28;20056;-59
2021/07/11 05:52:53;;;;;;;33.55;29.25;;;;;;;17.25;84.22;101468.03;10540882;28;20048;-59
2021/07/11 05:57:56;;;;;;;36.35;29.70;;;;;;;17.16;84.69;101473.16;10540424;28;20052;-60
2021/07/11 06:02:58;;;;;;;35.97;28.67;;;;;;;17.31;84.10;101472.00;10540287;28;20062;-59
2021/07/11 06:08:00;;;;;;;41.50;31.88;;;;;;;17.24;84.41;101471.63;10540291;28;20066;-59
2021/07/11 06:13:03;;;;;;;37.70;30.52;;;;;;;17.33;84.35;101485.97;10540196;28;20055;-59
2021/07/11 06:18:05;;;;;;;46.00;34.45;;;;;;;17.16;84.30;101478.44;10538595;28;20105;-60
2021/07/11 06:23:09;;;;;;;41.28;33.40;;;;;;;17.07;84.80;101480.81;10539505;28;20135;-59
2021/07/11 06:28:11;;;;;;;35.08;31.30;;;;;;;17.54;82.86;101478.19;10538969;28;20056;-60
2021/07/11 06:33:13;;;;;;;35.85;30.85;;;;;;;17.63;83.28;101504.00;10539555;28;20040;-60
2021/07/11 06:38:16;;;;;;;36.85;30.27;;;;;;;17.88;83.16;101509.25;10539369;28;20048;-60
2021/07/11 06:43:18;;;;;;;38.08;30.77;;;;;;;18.13;81.65;101511.66;10539704;28;20040;-60
2021/07/11 06:48:20;;;;;;;37.60;29.17;;;;;;;18.31;81.74;101517.34;10538978;28;20403;-59
2021/07/11 06:53:23;;;;;;;35.88;29.02;;;;;;;18.56;79.75;101518.88;10539080;28;20495;-60
2021/07/11 06:58:25;;;;;;;37.58;30.15;;;;;;;18.55;78.91;101532.25;10538918;28;20055;-60
2021/07/11 07:03:27;;;;;;;29.88;25.10;;;;;;;19.28;77.11;101532.56;10538792;28;20051;-60
2021/07/11 07:08:30;;;;;;;28.00;23.30;;;;;;;19.27;76.27;101536.22;10539325;28;20054;-60
2021/07/11 07:13:32;;;;;;;38.70;31.42;;;;;;;19.16;76.47;101546.88;10538684;28;20052;-60
2021/07/11 07:18:35;;;;;;;41.35;33.67;;;;;;;18.79;77.01;101539.22;10538533;28;20056;-59
2021/07/11 07:23:37;;;;;;;40.75;32.40;;;;;;;19.05;76.46;101539.81;10538472;28;20051;-59
2021/07/11 07:28:40;;;;;;;47.83;34.20;;;;;;;19.39;75.04;101547.63;10537975;28;20476;-60
2021/07/11 07:33:43;;;;;;;41.97;32.90;;;;;;;19.46;74.40;101544.31;10538464;28;20066;-60
2021/07/11 07:38:45;;;;;;;47.03;37.90;;;;;;;18.98;75.05;101550.06;10537836;28;20052;-60
2021/07/11 07:43:47;;;;;;;47.22;35.60;;;;;;;19.33;74.90;101551.63;10543523;28;20059;-60
2021/07/11 07:48:50;;;;;;;41.80;33.25;;;;;;;19.53;73.41;101557.94;10545611;28;20067;-60
2021/07/11 07:53:52;;;;;;;43.50;31.77;;;;;;;19.89;71.79;101544.38;10545367;28;20063;-60
2021/07/11 07:58:54;;;;;;;37.53;30.58;;;;;;;20.66;70.42;101551.03;10545192;28;20048;-59
2021/07/11 08:03:57;;;;;;;38.08;28.40;;;;;;;20.34;70.40;101554.66;10544938;28;20048;-60
2021/07/11 08:08:59;;;;;;;37.90;30.98;;;;;;;19.95;72.44;101557.97;10544954;28;20052;-60
2021/07/11 08:14:01;;;;;;;33.08;26.48;;;;;;;20.58;69.65;101555.19;10544670;28;20051;-59
2021/07/11 08:19:05;;;;;;;27.27;23.50;;;;;;;20.45;69.47;101561.72;10542979;28;20062;-60
2021/07/11 08:24:07;;;;;;;31.17;26.90;;;;;;;19.97;71.01;101565.81;10544361;28;20056;-60
2021/07/11 08:29:09;;;;;;;34.25;27.55;;;;;;;19.60;72.27;101572.41;10543964;28;20040;-59
2021/07/11 08:34:12;;;;;;;33.63;25.58;;;;;;;20.72;70.09;101566.47;10543871;28;20048;-59
2021/07/11 08:39:14;;;;;;;31.40;25.17;;;;;;;21.69;66.94;101561.25;10543392;28;20385;-60
2021/07/11 08:44:16;;;;;;;26.08;23.25;;;;;;;21.88;64.13;101551.53;10543897;28;20048;-59
2021/07/11 08:49:19;;;;;;;25.38;22.65;;;;;;;22.48;62.51;101555.69;10543072;28;20052;-60
2021/07/11 08:54:21;;;;;;;26.85;23.25;;;;;;;22.68;63.58;101551.97;10540483;28;20059;-59
2021/07/11 08:59:26;;;;;;;24.23;21.02;;;;;;;23.30;60.92;101551.25;10542694;28;20484;-60
2021/07/11 09:04:40;;;;;;;23.52;20.33;;;;;;;23.70;60.37;101564.16;10542682;28;20044;-60
2021/07/11 09:09:42;;;;;;;24.92;21.05;;;;;;;22.96;61.24;101575.94;10540974;28;20503;-60
2021/07/11 09:14:45;;;;;;;26.17;21.05;;;;;;;22.91;61.93;101572.88;10542157;28;20071;-59
2021/07/11 09:19:49;;;;;;;20.67;17.67;;;;;;;23.92;60.08;101572.66;10542147;28;20052;-61
2021/07/11 09:24:57;;;;;;;29.02;22.02;;;;;;;21.95;64.04;101581.13;10542224;28;20113;-60
2021/07/11 09:30:04;;;;;;;24.60;21.25;;;;;;;22.72;62.90;101585.38;10541355;28;20441;-60
2021/07/11 09:35:19;;;;;;;31.42;25.13;;;;;;;21.89;64.82;101577.22;10541702;28;20054;-59
2021/07/11 09:40:24;;;;;;;31.08;24.92;;;;;;;22.54;63.51;101579.97;10541359;28;20052;-60
2021/07/11 09:45:29;;;;;;;30.88;25.23;;;;;;;23.05;63.56;101588.41;10541259;28;20044;-60
2021/07/11 09:50:31;;;;;;;28.50;24.15;;;;;;;22.51;62.94;101585.63;10540668;28;20447;-60
2021/07/11 09:55:35;;;;;;;32.17;23.30;;;;;;;22.77;62.75;101588.41;10539392;28;20054;-60
2021/07/11 10:00:40;;;;;;;32.38;24.80;;;;;;;22.70;62.35;101584.69;10540933;28;20381;-59
2021/07/11 10:05:46;;;;;;;29.50;24.30;;;;;;;22.78;61.28;101589.28;10540351;28;20055;-61
2021/07/11 10:10:48;;;;;;;31.23;23.58;;;;;;;24.50;59.45;101589.06;10539630;28;20059;-61
2021/07/11 10:15:51;;;;;;;32.60;24.08;;;;;;;22.94;63.43;101594.78;10539633;28;20052;-59
2021/07/11 10:20:58;;;;;;;28.58;23.50;;;;;;;23.54;62.44;101604.94;10539670;28;20048;-60
2021/07/11 10:26:03;;;;;;;26.23;21.15;;;;;;;25.33;57.75;101594.50;10538490;28;20059;-61
2021/07/11 10:31:16;;;;;;;26.20;22.35;;;;;;;25.37;55.23;101597.72;10539524;28;20047;-61
2021/07/11 10:36:30;;;;;;;23.52;21.05;;;;;;;24.33;56.84;101590.81;10538212;28;20077;-59
2021/07/11 10:41:33;;;;;;;27.08;21.60;;;;;;;23.94;56.20;101586.75;10539443;28;20127;-61
2021/07/11 10:46:41;;;;;;;25.88;20.70;;;;;;;25.83;54.96;101579.25;10538222;28;20080;-59
2021/07/11 10:51:55;;;;;;;24.17;21.10;;;;;;;25.32;55.46;101582.13;10538772;28;20383;-60
2021/07/11 10:57:06;;;;;;;22.70;20.23;;;;;;;26.90;50.50;101581.66;10538547;28;20071;-60
2021/07/11 11:02:27;;;;;;;25.48;21.00;;;;;;;24.74;57.34;101586.47;10538548;28;20400;-61
2021/07/11 11:08:14;;;;;;;24.92;21.17;;;;;;;23.97;58.10;101580.22;10536683;28;20399;-60
2021/07/11 11:13:17;;;;;;;25.80;20.40;;;;;;;24.01;59.28;101584.28;10529125;28;20056;-61
2021/07/11 11:18:21;;;;;;;26.27;22.17;;;;;;;23.54;60.18;101588.91;10544507;28;20065;-61
2021/07/11 11:23:25;;;;;;;26.05;22.63;;;;;;;23.36;60.71;101593.41;10546213;28;20135;-61
2021/07/11 11:28:37;;;;;;;22.40;19.85;;;;;;;24.38;56.70;101586.66;10545618;28;20044;-61
2021/07/11 11:34:09;;;;;;;25.17;20.42;;;;;;;23.74;58.44;101592.25;10544492;28;20046;-61
2021/07/11 11:39:23;;;;;;;19.73;16.95;;;;;;;24.45;59.76;101590.34;10537118;28;20056;-60
2021/07/11 11:44:26;;;;;;;24.60;21.88;;;;;;;24.60;56.08;101585.28;10545259;28;20419;-60
2021/07/11 11:49:31;;;;;;;21.38;18.90;;;;;;;25.36;53.86;101590.69;10543640;28;20044;-60
2021/07/11 11:54:34;;;;;;;17.73;15.82;;;;;;;25.82;54.75;101588.31;10545009;28;20052;-61
2021/07/11 11:59:37;;;;;;;23.33;19.63;;;;;;;25.33;54.10;101591.00;10543530;28;20059;-61
2021/07/11 12:04:40;;;;;;;18.80;16.90;;;;;;;24.40;54.30;101583.81;10545051;28;20044;-60
2021/07/11 12:09:43;;;;;;;17.98;16.10;;;;;;;23.90;58.96;101591.53;10544802;28;20048;-62
2021/07/11 12:14:45;;;;;;;20.17;15.48;;;;;;;24.11;57.84;101593.03;10544540;28;20071;-61
2021/07/11 12:19:51;;;;;;;21.58;18.30;;;;;;;24.06;55.19;101588.16;10544453;28;20062;-61
2021/07/11 12:25:29;;;;;;;22.65;18.27;;;;;;;23.92;54.78;101580.69;10542982;28;20060;-60
2021/07/11 12:30:35;;;;;;;18.00;16.10;;;;;;;24.62;55.25;101574.41;10543890;28;20044;-60
2021/07/11 12:35:45;;;;;;;16.58;13.68;;;;;;;24.62;56.87;101569.06;10543505;28;20074;-61
2021/07/11 12:40:55;;;;;;;16.40;14.80;;;;;;;24.21;58.42;101568.81;10543880;28;20044;-61
2021/07/11 12:46:06;;;;;;;17.50;15.60;;;;;;;24.24;57.55;101571.19;10543625;28;20100;-61
2021/07/11 12:51:29;;;;;;;17.63;15.77;;;;;;;23.98;59.00;101572.03;10543382;28;20044;-61
2021/07/11 12:56:31;;;;;;;20.13;17.85;;;;;;;23.32;60.78;101571.50;10543654;28;20407;-60
2021/07/11 13:01:34;;;;;;;14.68;13.18;;;;;;;23.55;61.17;101568.34;10542843;28;20504;-60
2021/07/11 13:06:39;;;;;;;22.65;17.33;;;;;;;23.42;56.99;101571.44;10542494;28;20492;-61
2021/07/11 13:11:42;;;;;;;21.58;18.77;;;;;;;23.30;57.46;101570.81;10542350;28;20498;-62
2021/07/11 13:16:44;;;;;;;20.83;17.35;;;;;;;23.65;58.98;101557.56;10542363;28;20056;-61
2021/07/11 13:21:47;;;;;;;18.13;16.20;;;;;;;23.76;59.45;101556.50;10541531;28;20048;-61
2021/07/11 13:26:49;;;;;;;18.92;15.55;;;;;;;23.83;60.61;101549.56;10541179;28;20056;-61
2021/07/11 13:31:53;;;;;;;19.23;17.17;;;;;;;24.16;57.28;101547.91;10541300;28;20044;-60
2021/07/11 13:36:56;;;;;;;20.30;18.20;;;;;;;23.62;58.93;101553.38;10541099;28;20052;-61
2021/07/11 13:41:58;;;;;;;19.75;17.42;;;;;;;23.54;60.59;101548.81;10540095;28;20488;-60
2021/07/11 13:47:00;;;;;;;20.83;16.85;;;;;;;24.75;57.27;101531.94;10540497;28;20403;-60
2021/07/11 13:52:03;;;;;;;20.85;17.38;;;;;;;24.18;56.38;101540.56;10540394;28;20476;-61
2021/07/11 13:57:06;;;;;;;17.00;15.18;;;;;;;24.23;56.52;101524.03;10540549;28;20052;-61
2021/07/11 14:02:08;;;;;;;19.08;17.08;;;;;;;24.23;55.72;101516.84;10540663;28;20051;-60
2021/07/11 14:07:11;;;;;;;17.50;15.68;;;;;;;23.55;57.84;101521.09;10539404;28;20056;-61
2021/07/11 14:12:13;;;;;;;16.65;14.80;;;;;;;23.60;57.83;101522.44;10540092;28;20127;-61
2021/07/11 14:17:16;;;;;;;18.67;16.20;;;;;;;23.56;57.57;101522.75;10539457;28;20055;-61
2021/07/11 14:22:18;;;;;;;14.90;13.30;;;;;;;23.19;62.39;101520.28;10538906;28;20055;-60
2021/07/11 14:27:20;;;;;;;16.08;12.75;;;;;;;23.31;62.43;101515.56;10539806;28;20078;-61
2021/07/11 14:32:23;;;;;;;13.80;12.30;;;;;;;23.14;63.55;101510.06;10539776;28;20055;-62
2021/07/11 14:37:25;;;;;;;13.90;12.50;;;;;;;24.61;59.49;101500.44;10539006;28;20044;-60
2021/07/11 14:42:28;;;;;;;13.43;12.13;;;;;;;23.73;62.14;101505.00;10539631;28;20043;-61
2021/07/11 14:47:30;;;;;;;16.60;14.90;;;;;;;23.83;58.27;101502.25;10538954;28;20399;-61
2021/07/11 14:52:32;;;;;;;16.05;14.30;;;;;;;23.82;59.52;101502.41;10537835;28;20476;-61
2021/07/11 14:57:35;;;;;;;13.68;12.02;;;;;;;23.13;60.90;101503.06;10538468;28;20117;-60
2021/07/11 15:02:37;;;;;;;8.82;7.93;;;;;;;23.09;60.47;101507.00;10537209;28;20052;-61
2021/07/11 15:07:40;;;;;;;4.72;4.30;;;;;;;23.17;58.20;101496.41;10538310;28;20384;-61
2021/07/11 15:12:42;;;;;;;4.97;4.57;;;;;;;22.87;60.94;101492.25;10538633;28;20385;-61
2021/07/11 15:17:44;;;;;;;6.00;4.68;;;;;;;22.80;60.36;101488.53;10538866;28;20052;-60
2021/07/11 15:22:47;;;;;;;4.93;4.10;;;;;;;22.71;58.99;101500.09;10538545;28;20052;-61
2021/07/11 15:27:49;;;;;;;4.50;4.10;;;;;;;22.70;59.33;101493.09;10539048;28;20052;-60
2021/07/11 15:32:52;;;;;;;4.97;4.00;;;;;;;22.73;61.07;101485.63;10537851;28;20369;-60
2021/07/11 15:37:54;;;;;;;4.50;3.47;;;;;;;22.89;57.68;101484.09;10538598;28;20060;-61
2021/07/11 15:42:56;;;;;;;4.57;4.20;;;;;;;22.62;59.61;101483.16;10539394;28;20063;-60
2021/07/11 15:47:59;;;;;;;5.78;4.15;;;;;;;22.48;59.40;101475.66;10538824;28;20051;-61
2021/07/11 15:53:01;;;;;;;4.10;3.80;;;;;;;22.22;60.50;101471.00;10537350;28;20525;-60
2021/07/11 15:58:07;;;;;;;5.15;4.40;;;;;;;22.12;58.50;101468.38;10538937;28;20044;-61
2021/07/11 16:03:10;;;;;;;5.65;3.80;;;;;;;22.27;59.63;101471.38;10542605;28;20044;-61
2021/07/11 16:08:13;;;;;;;3.67;3.38;;;;;;;22.23;60.22;101470.03;10545627;28;20083;-61
2021/07/11 16:13:16;;;;;;;4.32;3.72;;;;;;;22.55;57.20;101466.91;10544817;28;20479;-61
2021/07/11 16:18:19;;;;;;;2.95;2.75;;;;;;;22.46;58.74;101470.50;10543485;28;20048;-61
2021/07/11 16:23:21;;;;;;;3.08;2.88;;;;;;;22.36;59.04;101464.34;10544582;28;20051;-61
2021/07/11 16:28:23;;;;;;;3.50;3.20;;;;;;;22.23;60.47;101462.03;10544016;28;20040;-62
2021/07/11 16:33:26;;;;;;;2.95;2.70;;;;;;;22.14;59.21;101461.09;10544423;28;20040;-60
2021/07/11 16:38:45;;;;;;;3.20;2.97;;;;;;;22.09;57.64;101468.69;10544426;28;20086;-60
2021/07/11 16:43:48;;;;;;;3.15;2.85;;;;;;;22.19;58.58;101463.28;10544210;28;20047;-61
2021/07/11 16:48:50;;;;;;;4.63;3.15;;;;;;;21.81;59.94;101468.66;10543692;28;20051;-61
2021/07/11 16:53:55;;;;;;;2.25;2.15;;;;;;;22.05;59.20;101468.13;10544063;28;20051;-61
2021/07/11 16:58:58;;;;;;;3.88;2.15;;;;;;;22.14;59.11;101473.56;10543388;28;20055;-60
2021/07/11 17:04:00;;;;;;;3.20;2.92;;;;;;;22.15;60.83;101473.41;10543542;28;20396;-61
2021/07/11 17:09:03;;;;;;;4.32;3.00;;;;;;;21.73;59.74;101468.53;10543059;28;20051;-60
2021/07/11 17:14:07;;;;;;;2.58;2.42;;;;;;;21.88;60.73;101471.56;10542239;28;20377;-60
2021/07/11 17:19:09;;;;;;;3.20;2.40;;;;;;;21.81;59.38;101473.16;10543267;28;20058;-60
2021/07/11 17:24:12;;;;;;;2.70;2.50;;;;;;;21.91;61.03;101465.94;10542589;28;20062;-60
2021/07/11 17:29:14;;;;;;;4.30;2.50;;;;;;;21.73;60.30;101463.19;10542419;28;20044;-60
2021/07/11 17:34:16;;;;;;;2.40;2.20;;;;;;;21.94;59.83;101471.00;10542118;28;20502;-62
2021/07/11 17:39:19;;;;;;;2.22;2.13;;;;;;;22.04;61.51;101465.59;10542052;28;20048;-61
2021/07/11 17:44:23;;;;;;;2.63;2.42;;;;;;;21.60;62.77;101465.34;10541928;28;20059;-61
2021/07/11 17:49:26;;;;;;;2.60;2.40;;;;;;;21.59;62.17;101461.84;10541337;28;20040;-61
2021/07/11 17:54:28;;;;;;;2.85;2.45;;;;;;;21.71;64.38;101463.34;10541440;28;20134;-60
2021/07/11 17:59:31;;;;;;;2.53;2.33;;;;;;;21.55;65.33;101455.09;10541342;28;20048;-61
2021/07/11 18:04:33;;;;;;;2.47;2.38;;;;;;;21.05;66.36;101469.44;10539445;28;20130;-61
2021/07/11 18:09:36;;;;;;;2.58;2.30;;;;;;;21.15;66.89;101467.63;10540845;28;20105;-60
2021/07/11 18:14:38;;;;;;;3.03;2.83;;;;;;;21.13;69.09;101461.59;10522481;28;20048;-60
2021/07/11 18:19:40;;;;;;;4.22;2.60;;;;;;;20.81;70.04;101467.19;10540331;28;20513;-61
2021/07/11 18:24:42;;;;;;;2.58;2.40;;;;;;;20.76;70.27;101464.97;10539251;28;20399;-62
2021/07/11 18:29:45;;;;;;;3.00;2.70;;;;;;;20.78;70.02;101463.00;10540992;28;20052;-60
2021/07/11 18:34:47;;;;;;;3.55;2.90;;;;;;;20.62;70.99;101462.66;10540944;28;20044;-61
2021/07/11 18:39:50;;;;;;;4.78;2.65;;;;;;;20.65;71.59;101450.94;10540021;28;20051;-61
2021/07/11 18:44:52;;;;;;;3.33;3.03;;;;;;;20.61;71.87;101450.34;10540235;28;20052;-60
2021/07/11 18:49:54;;;;;;;3.30;2.78;;;;;;;21.00;69.83;101449.53;10539803;28;20075;-61
2021/07/11 18:54:57;;;;;;;2.65;2.45;;;;;;;20.63;72.27;101451.06;10539697;28;20055;-60
2021/07/11 19:00:00;;;;;;;3.22;2.47;;;;;;;20.36;73.57;101452.53;10539654;28;20048;-61
2021/07/11 19:05:03;;;;;;;5.38;3.08;;;;;;;20.22;74.76;101450.22;10538771;28;20050;-61
2021/07/11 19:10:07;;;;;;;3.22;3.03;;;;;;;19.93;75.01;101437.69;10539768;28;20044;-60
2021/07/11 19:15:10;;;;;;;3.47;3.25;;;;;;;20.04;75.22;101448.22;10539173;28;20051;-60
2021/07/11 19:20:13;;;;;;;4.60;3.55;;;;;;;19.87;75.31;101456.84;10537766;28;20443;-60
2021/07/11 19:25:16;;;;;;;7.85;3.35;;;;;;;19.71;75.20;101453.78;10538731;28;20063;-60
2021/07/11 19:30:20;;;;;;;3.58;3.05;;;;;;;19.92;74.67;101437.81;10539292;28;20052;-60
2021/07/11 19:35:23;;;;;;;4.03;3.67;;;;;;;19.97;72.75;101436.47;10538881;28;20054;-61
2021/07/11 19:40:28;;;;;;;8.25;3.47;;;;;;;19.84;74.29;101439.31;10547570;28;20055;-61
2021/07/11 19:45:30;;;;;;;3.83;3.53;;;;;;;19.65;74.53;101434.75;10545909;28;20496;-61
2021/07/11 19:50:33;;;;;;;6.25;3.28;;;;;;;19.67;74.76;101435.44;10545779;28;20048;-61
2021/07/11 19:55:35;;;;;;;4.45;3.13;;;;;;;19.48;75.40;101428.22;10545051;28;20540;-60
2021/07/11 20:00:38;;;;;;;4.05;3.75;;;;;;;19.38;75.91;101427.28;10545567;28;20051;-60
2021/07/11 20:05:40;;;;;;;3.92;3.63;;;;;;;19.16;75.76;101422.97;10545367;28;20460;-60
2021/07/11 20:10:43;;;;;;;4.25;3.85;;;;;;;19.27;75.15;101424.72;10545517;28;20048;-60
2021/07/11 20:15:45;;;;;;;5.68;4.60;;;;;;;19.19;75.55;101417.41;10544473;28;20545;-61
2021/07/11 20:20:48;;;;;;;7.07;4.47;;;;;;;18.98;75.93;101420.06;10544708;28;20052;-60
2021/07/11 20:25:50;;;;;;;6.40;3.78;;;;;;;18.92;76.44;101424.03;10544473;28;20051;-60
2021/07/11 20:30:53;;;;;;;5.90;4.40;;;;;;;18.91;76.05;101426.81;10544463;28;20055;-60
2021/07/11 20:35:55;;;;;;;9.65;5.63;;;;;;;18.73;76.58;101421.22;10544560;28;20044;-60
2021/07/11 20:40:57;;;;;;;6.30;4.45;;;;;;;18.66;77.20;101431.47;10543409;28;20044;-61
2021/07/11 20:46:00;;;;;;;4.78;4.38;;;;;;;18.63;76.50;101430.88;10543424;28;20052;-59
2021/07/11 20:51:02;;;;;;;4.75;4.35;;;;;;;18.45;77.36;101427.91;10542242;28;20526;-60
2021/07/11 20:56:07;;;;;;;5.03;4.63;;;;;;;18.01;78.51;101419.91;10543205;28;20396;-61
2021/07/11 21:01:09;;;;;;;6.28;4.45;;;;;;;18.04;78.33;101427.63;10543744;28;20044;-59
2021/07/11 21:06:12;;;;;;;5.50;4.60;;;;;;;18.00;78.55;101408.47;10543448;28;20044;-60
2021/07/11 21:11:16;;;;;;;5.30;4.80;;;;;;;17.80;78.87;101410.00;10543200;28;20078;-59
2021/07/11 21:16:19;;;;;;;5.57;4.43;;;;;;;17.59;78.64;101406.38;10541775;28;20055;-60
2021/07/11 21:21:21;;;;;;;5.55;5.05;;;;;;;17.66;78.24;101410.22;10543223;28;20506;-60
2021/07/11 21:26:24;;;;;;;5.38;4.45;;;;;;;17.56;78.73;101409.25;10542406;28;20055;-60
2021/07/11 21:31:28;;;;;;;11.48;5.38;;;;;;;17.35;79.63;101417.03;10541010;28;20103;-60
2021/07/11 21:36:31;;;;;;;6.57;5.50;;;;;;;17.19;79.74;101409.44;10541835;28;20499;-60
2021/07/11 21:41:33;;;;;;;6.55;5.25;;;;;;;17.13;80.15;101409.88;10542125;28;20052;-60
2021/07/11 21:46:36;;;;;;;6.38;5.78;;;;;;;16.96;80.15;101417.28;10541620;28;20048;-60
2021/07/11 21:51:39;;;;;;;5.57;5.10;;;;;;;16.93;80.42;101419.31;10540543;28;20040;-60
2021/07/11 21:56:41;;;;;;;5.80;5.28;;;;;;;16.89;80.41;101419.56;10540230;28;20055;-60
2021/07/11 22:01:44;;;;;;;6.63;5.35;;;;;;;16.87;80.95;101418.81;10541376;28;20395;-60
2021/07/11 22:06:46;;;;;;;9.38;6.43;;;;;;;16.82;80.59;101420.91;10540929;28;20070;-60
2021/07/11 22:11:49;;;;;;;6.30;5.70;;;;;;;16.91;80.56;101414.13;10540480;28;20411;-60
2021/07/11 22:16:52;;;;;;;7.93;7.22;;;;;;;16.77;80.54;101422.22;10539722;28;20491;-60
2021/07/11 22:21:54;;;;;;;8.07;7.25;;;;;;;16.52;81.55;101416.06;10540456;28;20127;-60
2021/07/11 22:26:57;;;;;;;7.65;7.05;;;;;;;16.44;81.81;101416.66;10539739;28;20502;-60
2021/07/11 22:31:59;;;;;;;7.18;6.55;;;;;;;16.44;81.56;101406.09;10539687;28;20053;-60
2021/07/11 22:37:02;;;;;;;9.88;7.35;;;;;;;16.39;81.18;101413.50;10539965;28;20122;-59
2021/07/11 22:42:05;;;;;;;8.68;6.85;;;;;;;16.29;81.55;101418.59;10539466;28;20389;-60
2021/07/11 22:47:07;;;;;;;8.43;7.72;;;;;;;16.39;81.09;101413.50;10539511;28;20055;-60
2021/07/11 22:52:10;;;;;;;8.23;7.25;;;;;;;16.22;81.36;101412.03;10539144;28;20040;-60
2021/07/11 22:57:12;;;;;;;8.10;7.28;;;;;;;16.27;81.39;101414.38;10539314;28;20059;-60